Time;durP1;ratioP1;P1;durP2;ratioP2;P2;SDS_P1;SDS_P2;PMS_P1;PMS_P2;Temp;Humidity;BMP_temperature;BMP_pressure;BME280_temperature;BME280_humidity;BME280_pressure;Samples;Min_cycle;Max_cycle;Signal;HPM_P1;HPM_P2
2021/01/16 00:00:51;;;;;;;;;;;;;;;-14.71;72.98;99623.18;1766357;80;22142;-65
2021/01/16 00:03:19;;;;;;;;;;;;;;;-14.71;73.06;99629.42;1761151;80;20248;-65
2021/01/16 00:05:49;;;;;;;;;;;;;;;-14.70;73.13;99627.78;1766462;80;20546;-65
2021/01/16 00:08:18;;;;;;;;;;;;;;;-14.70;73.10;99628.63;1740511;81;20465;-65
2021/01/16 00:10:48;;;;;;;;;;;;;;;-14.70;73.12;99622.78;1724832;83;20135;-64
2021/01/16 00:13:17;;;;;;;;;;;;;;;-14.69;73.08;99627.84;1720875;83;21378;-64
2021/01/16 00:15:45;;;;;;;;;;;;;;;-14.69;73.07;99635.34;1719827;83;20183;-65
2021/01/16 00:18:16;;;;;;;;;;;;;;;-14.69;73.09;99634.09;1713018;83;20184;-65
2021/01/16 00:20:45;;;;;;;;;;;;;;;-14.67;73.07;99637.89;1714439;83;20852;-65
2021/01/16 00:23:13;;;;;;;;;;;;;;;-14.66;73.12;99630.84;1721749;81;20753;-64
2021/01/16 00:25:41;;;;;;;;;;;;;;;-14.65;73.13;99632.55;1701566;82;21953;-66
2021/01/16 00:28:14;;;;;;;;;;;;;;;-14.63;73.05;99633.47;1742503;81;20603;-65
2021/01/16 00:30:43;;;;;;;;;;;;;;;-14.64;72.94;99635.11;1706475;83;20160;-65
2021/01/16 00:33:24;;;;;;;;;;;;;;;-14.65;72.84;99627.16;1716407;82;20633;-64
2021/01/16 00:35:53;;;;;;;;;;;;;;;-14.66;72.79;99629.20;1716718;82;20144;-66
2021/01/16 00:38:21;;;;;;;;;;;;;;;-14.67;72.69;99632.50;1732954;82;22081;-67
2021/01/16 00:40:49;;;;;;;;;;;;;;;-14.70;72.69;99627.38;1732738;82;20131;-65
2021/01/16 00:43:17;;;;;;;;;;;;;;;-14.72;72.69;99625.23;1733140;82;20497;-67
2021/01/16 00:45:45;;;;;;;;;;;;;;;-14.73;72.83;99626.41;1735964;82;20531;-65
2021/01/16 00:48:16;;;;;;;;;;;;;;;-14.74;72.93;99629.31;1725575;82;20473;-65
2021/01/16 00:50:48;;;;;;;;;;;;;;;-14.72;72.98;99631.88;1733749;81;22414;-65
2021/01/16 00:53:16;;;;;;;;;;;;;;;-14.71;73.00;99638.17;1727295;82;20183;-65
2021/01/16 00:55:51;;;;;;;;;;;;;;;-14.70;72.99;99636.53;1727881;82;20156;-66
2021/01/16 00:58:20;;;;;;;;;;;;;;;-14.70;72.96;99640.27;1734803;82;20533;-65
2021/01/16 01:00:50;;;;;;;;;;;;;;;-14.72;73.01;99640.22;1731225;82;20485;-65
2021/01/16 01:03:22;;;;;;;;;;;;;;;-14.72;73.04;99634.36;1708290;82;22273;-65
2021/01/16 01:05:50;;;;;;;;;;;;;;;-14.72;73.05;99636.86;1734918;82;20486;-65
2021/01/16 01:08:26;;;;;;;;;;;;;;;-14.74;73.08;99639.30;1732752;81;20467;-65
2021/01/16 01:10:54;;;;;;;;;;;;;;;-14.73;73.17;99652.66;1728079;82;20156;-65
2021/01/16 01:13:22;;;;;;;;;;;;;;;-14.73;73.32;99652.66;1732689;82;20420;-65
2021/01/16 01:15:51;;;;;;;;;;;;;;;-14.74;73.37;99645.55;1736013;82;21193;-65
2021/01/16 01:18:19;;;;;;;;;;;;;;;-14.74;73.43;99643.45;1736331;82;20470;-67
2021/01/16 01:20:47;;;;;;;;;;;;;;;-14.73;73.49;99631.41;1732570;81;20545;-68
2021/01/16 01:23:15;;;;;;;;;;;;;;;-14.73;73.45;99634.77;1724467;82;21020;-66
2021/01/16 01:25:43;;;;;;;;;;;;;;;-14.74;73.38;99638.06;1734590;82;20516;-65
2021/01/16 01:28:11;;;;;;;;;;;;;;;-14.74;73.50;99635.56;1732659;81;22158;-66
2021/01/16 01:30:39;;;;;;;;;;;;;;;-14.76;73.40;99633.40;1730832;82;20778;-66
2021/01/16 01:33:15;;;;;;;;;;;;;;;-14.76;73.34;99628.80;1724073;82;20197;-68
2021/01/16 01:35:43;;;;;;;;;;;;;;;-14.78;73.20;99629.98;1720821;82;20153;-66
2021/01/16 01:38:16;;;;;;;;;;;;;;;-14.81;73.04;99621.56;1725035;82;20112;-67
2021/01/16 01:40:44;;;;;;;;;;;;;;;-14.83;72.95;99634.39;1724326;82;21195;-66
2021/01/16 01:43:13;;;;;;;;;;;;;;;-14.86;72.83;99630.13;1722406;82;20499;-66
2021/01/16 01:45:41;;;;;;;;;;;;;;;-14.89;72.87;99635.85;1721696;82;20487;-66
2021/01/16 01:48:10;;;;;;;;;;;;;;;-14.89;73.18;99628.76;1720363;82;20521;-66
2021/01/16 01:50:38;;;;;;;;;;;;;;;-14.88;73.40;99631.70;1721420;82;20119;-65
2021/01/16 01:53:07;;;;;;;;;;;;;;;-14.87;73.44;99625.52;1724824;82;21127;-64
2021/01/16 01:55:35;;;;;;;;;;;;;;;-14.85;73.51;99631.83;1717640;82;20500;-65
2021/01/16 01:58:06;;;;;;;;;;;;;;;-14.82;73.67;99634.84;1721095;82;20302;-65
2021/01/16 02:00:34;;;;;;;;;;;;;;;-14.78;73.95;99636.23;1666331;83;20510;-65
2021/01/16 02:03:02;;;;;;;;;;;;;;;-14.75;73.95;99621.76;1721366;82;20463;-64
2021/01/16 02:05:30;;;;;;;;;;;;;;;-14.73;74.01;99629.77;1722063;82;21368;-65
2021/01/16 02:07:59;;;;;;;;;;;;;;;-14.70;74.04;99632.38;1723892;82;20152;-66
2021/01/16 02:10:27;;;;;;;;;;;;;;;-14.66;73.99;99635.45;1720230;82;20534;-65
2021/01/16 02:12:56;;;;;;;;;;;;;;;-14.63;74.06;99632.22;1718831;82;20622;-65
2021/01/16 02:15:45;;;;;;;;;;;;;;;-14.59;74.05;99637.78;1724810;82;20200;-67
2021/01/16 02:18:29;;;;;;;;;;;;;;;-14.56;74.01;99636.25;1722290;82;21375;-65
2021/01/16 02:21:00;;;;;;;;;;;;;;;-14.58;73.88;99629.09;1716622;82;20545;-64
2021/01/16 02:23:31;;;;;;;;;;;;;;;-14.57;73.86;99637.05;1721306;82;20143;-65
2021/01/16 02:26:18;;;;;;;;;;;;;;;-14.57;73.76;99643.30;1716408;82;20473;-65
2021/01/16 02:29:04;;;;;;;;;;;;;;;-14.58;73.64;99648.23;1723346;82;20465;-65
2021/01/16 02:31:41;;;;;;;;;;;;;;;-14.58;73.57;99650.73;1725069;82;22671;-65
2021/01/16 02:34:13;;;;;;;;;;;;;;;-14.59;73.41;99651.13;1731506;82;20134;-67
2021/01/16 02:37:07;;;;;;;;;;;;;;;-14.60;73.28;99648.58;1749115;82;20154;-65
2021/01/16 02:39:41;;;;;;;;;;;;;;;-14.60;73.06;99648.58;1749197;82;20416;-65
2021/01/16 02:42:22;;;;;;;;;;;;;;;-14.64;72.96;99645.11;1749123;82;20503;-65
2021/01/16 02:45:02;;;;;;;;;;;;;;;-14.67;72.97;99650.39;1741026;82;22090;-65
2021/01/16 02:47:48;;;;;;;;;;;;;;;-14.71;73.09;99649.81;1743983;82;20527;-65
2021/01/16 02:50:21;;;;;;;;;;;;;;;-14.73;73.17;99639.76;1748432;81;20408;-66
2021/01/16 02:52:50;;;;;;;;;;;;;;;-14.75;73.11;99650.49;1729082;82;20481;-65
2021/01/16 02:55:18;;;;;;;;;;;;;;;-14.77;73.06;99650.83;1728702;82;20387;-66
2021/01/16 02:57:46;;;;;;;;;;;;;;;-14.78;73.08;99656.63;1725391;82;22071;-68
2021/01/16 03:00:17;;;;;;;;;;;;;;;-14.78;73.02;99651.63;1730201;82;20951;-65
2021/01/16 03:02:44;;;;;;;;;;;;;;;-14.79;72.97;99653.70;1719171;82;20575;-67
2021/01/16 03:05:13;;;;;;;;;;;;;;;-14.82;72.90;99650.69;1728412;82;20766;-66
2021/01/16 03:07:42;;;;;;;;;;;;;;;-14.87;72.84;99644.26;1720142;82;20187;-65
2021/01/16 03:10:11;;;;;;;;;;;;;;;-14.90;72.80;99663.27;1729152;82;22220;-66
2021/01/16 03:12:39;;;;;;;;;;;;;;;-14.94;72.79;99663.55;1723913;82;20156;-66
2021/01/16 03:15:12;;;;;;;;;;;;;;;-14.98;72.75;99669.22;1728344;81;20407;-66
2021/01/16 03:17:47;;;;;;;;;;;;;;;-15.01;72.67;99666.59;1722004;82;20159;-67
2021/01/16 03:20:26;;;;;;;;;;;;;;;-15.03;72.70;99663.58;1729327;82;20474;-64
2021/01/16 03:22:55;;;;;;;;;;;;;;;-15.05;72.72;99665.16;1726806;82;22295;-65
2021/01/16 03:25:24;;;;;;;;;;;;;;;-15.06;72.68;99667.20;1720589;82;20177;-65
2021/01/16 03:27:54;;;;;;;;;;;;;;;-15.06;72.70;99666.81;1728732;82;20216;-65
2021/01/16 03:30:22;;;;;;;;;;;;;;;-15.04;72.78;99665.22;1718375;82;20502;-65
2021/01/16 03:32:50;;;;;;;;;;;;;;;-14.99;72.95;99671.65;1723452;82;20134;-66
2021/01/16 03:35:20;;;;;;;;;;;;;;;-14.93;73.16;99676.89;1725644;82;22241;-66
2021/01/16 03:37:50;;;;;;;;;;;;;;;-14.83;73.34;99678.10;1728704;82;20520;-65
2021/01/16 03:40:18;;;;;;;;;;;;;;;-14.75;73.46;99676.73;1726083;82;20147;-65
2021/01/16 03:42:46;;;;;;;;;;;;;;;-14.69;73.42;99671.97;1722191;82;20499;-65
2021/01/16 03:45:21;;;;;;;;;;;;;;;-14.65;73.32;99665.89;1726993;82;20153;-65
2021/01/16 03:47:50;;;;;;;;;;;;;;;-14.62;73.11;99666.02;1726065;82;22135;-68
2021/01/16 03:50:20;;;;;;;;;;;;;;;-14.60;72.78;99669.82;1720698;82;20132;-65
2021/01/16 03:52:49;;;;;;;;;;;;;;;-14.63;72.56;99685.95;1728578;82;20114;-65
2021/01/16 03:55:17;;;;;;;;;;;;;;;-14.65;72.53;99688.78;1731409;82;20926;-65
2021/01/16 03:57:45;;;;;;;;;;;;;;;-14.68;72.39;99680.77;1726090;82;20506;-65
2021/01/16 04:00:13;;;;;;;;;;;;;;;-14.71;72.30;99672.30;1725865;82;21937;-65
2021/01/16 04:02:41;;;;;;;;;;;;;;;-14.77;72.21;99677.91;1731781;82;20532;-65
2021/01/16 04:05:11;;;;;;;;;;;;;;;-14.81;72.22;99684.87;1725984;82;20390;-65
2021/01/16 04:07:40;;;;;;;;;;;;;;;-14.83;72.24;99688.09;1719323;82;20150;-65
2021/01/16 04:10:09;;;;;;;;;;;;;;;-14.87;72.20;99688.37;1730600;82;20137;-65
2021/01/16 04:12:37;;;;;;;;;;;;;;;-14.92;72.11;99686.94;1721372;82;21210;-65
2021/01/16 04:15:06;;;;;;;;;;;;;;;-14.96;71.99;99695.11;1727159;82;21900;-65
2021/01/16 04:17:35;;;;;;;;;;;;;;;-15.01;72.07;99696.56;1730548;82;20139;-64
2021/01/16 04:20:04;;;;;;;;;;;;;;;-15.05;72.17;99703.48;1728425;82;20861;-64
2021/01/16 04:22:37;;;;;;;;;;;;;;;-15.07;72.13;99706.31;1723858;81;20743;-65
2021/01/16 04:25:06;;;;;;;;;;;;;;;-15.09;72.05;99709.53;1726684;82;21378;-64
2021/01/16 04:27:33;;;;;;;;;;;;;;;-15.16;71.92;99700.94;1726279;82;20518;-64
2021/01/16 04:30:02;;;;;;;;;;;;;;;-15.22;71.94;99704.07;1728188;82;20110;-65
2021/01/16 04:32:30;;;;;;;;;;;;;;;-15.26;72.03;99706.38;1733266;82;20515;-64
2021/01/16 04:34:59;;;;;;;;;;;;;;;-15.29;72.00;99704.61;1727259;82;20374;-65
2021/01/16 04:37:27;;;;;;;;;;;;;;;-15.32;72.11;99701.98;1737483;82;20406;-65
2021/01/16 04:39:55;;;;;;;;;;;;;;;-15.33;72.10;99696.92;1723168;83;20523;-66
2021/01/16 04:42:22;;;;;;;;;;;;;;;-15.34;72.11;99706.45;1723278;83;20144;-65
2021/01/16 04:44:50;;;;;;;;;;;;;;;-15.34;72.09;99705.20;1723195;83;20474;-64
2021/01/16 04:47:23;;;;;;;;;;;;;;;-15.34;72.05;99707.31;1723180;83;20485;-64
2021/01/16 04:49:52;;;;;;;;;;;;;;;-15.33;72.05;99716.90;1723211;83;21198;-65
2021/01/16 04:52:22;;;;;;;;;;;;;;;-15.32;71.97;99706.98;1723083;83;20147;-65
2021/01/16 04:54:52;;;;;;;;;;;;;;;-15.31;71.93;99713.67;1723243;83;20152;-65
2021/01/16 04:57:20;;;;;;;;;;;;;;;-15.30;72.03;99717.88;1723140;83;20139;-66
2021/01/16 04:59:47;;;;;;;;;;;;;;;-15.29;72.26;99727.08;1723226;83;20414;-65
2021/01/16 05:02:15;;;;;;;;;;;;;;;-15.25;72.31;99734.30;1723184;83;22108;-66
2021/01/16 05:04:44;;;;;;;;;;;;;;;-15.22;72.43;99736.53;1723152;83;20474;-66
2021/01/16 05:07:12;;;;;;;;;;;;;;;-15.15;72.51;99740.50;1723139;83;20124;-65
2021/01/16 05:09:43;;;;;;;;;;;;;;;-15.12;72.55;99748.97;1723095;83;20147;-65
2021/01/16 05:12:48;;;;;;;;;;;;;;;-15.09;72.77;99744.50;1723242;83;20474;-66
2021/01/16 05:15:22;;;;;;;;;;;;;;;-15.05;72.79;99745.08;1723252;83;21935;-65
2021/01/16 05:17:56;;;;;;;;;;;;;;;-14.99;72.62;99742.44;1722516;83;20535;-65
2021/01/16 05:20:24;;;;;;;;;;;;;;;-14.96;72.42;99743.81;1723245;83;20422;-66
2021/01/16 05:23:11;;;;;;;;;;;;;;;-14.96;72.37;99746.70;1723170;83;20160;-66
2021/01/16 05:25:23;;;;;;;;;;;;;;;-14.95;72.16;99744.27;1719077;83;20474;-65
2021/01/16 05:27:54;;;;;;;;;;;;;;;-14.95;71.90;99749.66;1723154;83;21952;-65
2021/01/16 05:30:23;;;;;;;;;;;;;;;-14.96;71.62;99747.56;1723157;83;20518;-65
2021/01/16 05:32:51;;;;;;;;;;;;;;;-14.99;71.41;99743.69;1712703;83;20137;-65
2021/01/16 05:35:20;;;;;;;;;;;;;;;-15.00;71.74;99746.97;1705050;82;20403;-65
2021/01/16 05:37:49;;;;;;;;;;;;;;;-15.01;71.43;99740.27;1705012;84;20133;-65
2021/01/16 05:40:18;;;;;;;;;;;;;;;-15.01;71.24;99750.27;1705053;84;21346;-65
2021/01/16 05:42:46;;;;;;;;;;;;;;;-15.02;71.08;99748.55;1705022;82;20472;-66
2021/01/16 05:45:15;;;;;;;;;;;;;;;-15.02;70.95;99752.30;1705032;84;20399;-67
2021/01/16 05:47:43;;;;;;;;;;;;;;;-15.00;70.74;99749.87;1704809;84;20145;-65
2021/01/16 05:50:12;;;;;;;;;;;;;;;-15.02;70.59;99747.30;1703807;84;20221;-65
2021/01/16 05:52:40;;;;;;;;;;;;;;;-15.02;70.57;99750.20;1704455;84;22274;-67
2021/01/16 05:55:09;;;;;;;;;;;;;;;-15.03;70.74;99750.98;1704169;84;20482;-65
2021/01/16 05:57:39;;;;;;;;;;;;;;;-15.02;70.97;99752.70;1704946;84;20868;-66
2021/01/16 06:00:08;;;;;;;;;;;;;;;-15.00;70.87;99760.71;1703380;82;20603;-65
2021/01/16 06:02:36;;;;;;;;;;;;;;;-14.97;70.70;99758.73;1698742;82;20201;-66
2021/01/16 06:05:05;;;;;;;;;;;;;;;-14.95;70.64;99764.25;1742036;80;21955;-67
2021/01/16 06:07:35;;;;;;;;;;;;;;;-14.94;70.75;99770.10;1739327;80;20143;-66
2021/01/16 06:10:03;;;;;;;;;;;;;;;-14.89;70.70;99767.39;1746353;80;20541;-68
2021/01/16 06:12:31;;;;;;;;;;;;;;;-14.86;70.50;99770.02;1713442;80;20189;-68
2021/01/16 06:14:59;;;;;;;;;;;;;;;-14.84;70.31;99779.68;1743010;80;20291;-68
2021/01/16 06:17:28;;;;;;;;;;;;;;;-14.81;70.19;99782.70;1775336;79;21950;-68
2021/01/16 06:19:56;;;;;;;;;;;;;;;-14.79;70.15;99786.11;1745852;79;21464;-68
2021/01/16 06:22:25;;;;;;;;;;;;;;;-14.78;70.08;99791.14;1768518;80;20136;-68
2021/01/16 06:24:53;;;;;;;;;;;;;;;-14.74;70.09;99796.72;1779847;79;20969;-68
2021/01/16 06:27:25;;;;;;;;;;;;;;;-14.68;70.04;99798.22;1774342;80;20159;-68
2021/01/16 06:30:00;;;;;;;;;;;;;;;-14.66;69.93;99804.13;1782183;80;22067;-68
2021/01/16 06:32:28;;;;;;;;;;;;;;;-14.63;69.90;99798.02;1780435;79;20223;-67
2021/01/16 06:35:11;;;;;;;;;;;;;;;-14.59;69.91;99797.34;1780608;79;20155;-68
2021/01/16 06:37:48;;;;;;;;;;;;;;;-14.54;69.97;99800.03;1749608;80;20222;-71
2021/01/16 06:40:29;;;;;;;;;;;;;;;-14.51;69.72;99803.50;1747944;80;20183;-68
2021/01/16 06:42:58;;;;;;;;;;;;;;;-14.51;69.56;99802.65;1718015;82;22512;-66
2021/01/16 06:45:27;;;;;;;;;;;;;;;-14.48;69.43;99800.27;1740548;81;20138;-67
2021/01/16 06:48:02;;;;;;;;;;;;;;;-14.45;69.32;99798.30;1742330;82;20344;-64
2021/01/16 06:50:33;;;;;;;;;;;;;;;-14.43;69.14;99800.06;1742237;82;20534;-67
2021/01/16 06:53:01;;;;;;;;;;;;;;;-14.40;69.01;99805.15;1742266;81;20374;-66
2021/01/16 06:55:33;;;;;;;;;;;;;;;-14.38;69.03;99802.28;1753162;81;21148;-65
2021/01/16 06:58:17;;;;;;;;;;;;;;;-14.33;68.88;99812.47;1743627;82;20521;-64
2021/01/16 07:00:57;;;;;;;;;;;;;;;-14.31;68.45;99811.73;1722205;83;20253;-65
2021/01/16 07:03:26;;;;;;;;;;;;;;;-14.29;68.30;99806.39;1732930;82;20547;-67
2021/01/16 07:05:55;;;;;;;;;;;;;;;-14.28;67.98;99816.00;1796074;79;35893;-67
2021/01/16 07:08:23;;;;;;;;;;;;;;;-14.31;67.77;99816.73;1787106;80;22051;-66
2021/01/16 07:10:52;;;;;;;;;;;;;;;-14.33;67.58;99814.56;1759470;81;20937;-68
2021/01/16 07:13:20;;;;;;;;;;;;;;;-14.35;67.29;99824.05;1759329;81;20591;-68
2021/01/16 07:15:50;;;;;;;;;;;;;;;-14.34;67.30;99824.50;1759557;81;20139;-66
2021/01/16 07:18:18;;;;;;;;;;;;;;;-14.35;67.11;99822.41;1722146;80;20187;-66
2021/01/16 07:20:48;;;;;;;;;;;;;;;-14.33;66.95;99820.81;1734105;79;20788;-68
2021/01/16 07:23:16;;;;;;;;;;;;;;;-14.33;66.73;99823.31;1798277;79;20486;-66
2021/01/16 07:25:44;;;;;;;;;;;;;;;-14.33;66.59;99824.97;1797725;79;20185;-66
2021/01/16 07:28:12;;;;;;;;;;;;;;;-14.34;66.49;99832.01;1729604;82;20137;-68
2021/01/16 07:30:41;;;;;;;;;;;;;;;-14.33;66.42;99823.31;1738114;81;20266;-70
2021/01/16 07:33:09;;;;;;;;;;;;;;;-14.30;66.38;99825.94;1730008;81;21601;-69
2021/01/16 07:35:37;;;;;;;;;;;;;;;-14.26;66.29;99820.27;1703682;83;20151;-68
2021/01/16 07:38:06;;;;;;;;;;;;;;;-14.22;66.03;99823.74;1695461;84;20513;-70
2021/01/16 07:40:34;;;;;;;;;;;;;;;-14.14;66.17;99834.90;1695742;84;20531;-69
2021/01/16 07:43:04;;;;;;;;;;;;;;;-14.03;66.11;99832.42;1668294;84;20408;-70
2021/01/16 07:45:34;;;;;;;;;;;;;;;-13.93;65.89;99842.35;1707670;83;21217;-69
2021/01/16 07:48:04;;;;;;;;;;;;;;;-13.89;65.60;99840.42;1732404;83;20122;-68
2021/01/16 07:50:39;;;;;;;;;;;;;;;-13.86;65.40;99849.30;1732129;82;20561;-69
2021/01/16 07:53:08;;;;;;;;;;;;;;;-13.91;65.01;99847.87;1737309;82;20280;-71
2021/01/16 07:55:40;;;;;;;;;;;;;;;-13.94;64.74;99859.02;1736160;81;20207;-67
2021/01/16 07:58:28;;;;;;;;;;;;;;;-13.97;64.61;99868.91;1732834;81;22245;-68
2021/01/16 08:01:01;;;;;;;;;;;;;;;-14.03;64.52;99867.44;1730742;82;20211;-67
2021/01/16 08:04:00;;;;;;;;;;;;;;;-14.06;64.54;99872.72;1709295;81;20203;-69
2021/01/16 08:06:34;;;;;;;;;;;;;;;-14.07;64.63;99874.77;1747921;81;20569;-67
2021/01/16 08:09:08;;;;;;;;;;;;;;;-14.06;64.54;99877.33;1720638;83;20297;-70
2021/01/16 08:11:36;;;;;;;;;;;;;;;-14.05;64.46;99876.53;1726790;82;21404;-67
2021/01/16 08:14:05;;;;;;;;;;;;;;;-14.05;64.32;99879.03;1738073;81;20562;-68
2021/01/16 08:16:34;;;;;;;;;;;;;;;-14.04;64.34;99887.00;1719472;81;20180;-70
2021/01/16 08:19:24;;;;;;;;;;;;;;;-14.01;64.32;99892.13;1727812;81;20946;-68
2021/01/16 08:21:53;;;;;;;;;;;;;;;-14.00;64.09;99892.58;1728030;81;20207;-68
2021/01/16 08:24:21;;;;;;;;;;;;;;;-14.01;64.02;99890.02;1730930;81;21362;-69
2021/01/16 08:27:00;;;;;;;;;;;;;;;-14.04;63.87;99897.41;1704323;83;20157;-70
2021/01/16 08:29:29;;;;;;;;;;;;;;;-14.10;63.60;99897.16;1698254;84;20221;-70
2021/01/16 08:32:10;;;;;;;;;;;;;;;-14.16;63.64;99897.37;1722338;83;20207;-68
2021/01/16 08:34:59;;;;;;;;;;;;;;;-14.09;63.81;99905.12;1730877;81;20147;-66
2021/01/16 08:37:32;;;;;;;;;;;;;;;-14.05;63.55;99909.05;1730133;83;22115;-68
2021/01/16 08:40:01;;;;;;;;;;;;;;;-13.98;63.51;99911.38;1728517;81;20568;-68
2021/01/16 08:42:29;;;;;;;;;;;;;;;-13.93;63.38;99918.27;1731463;81;20144;-68
2021/01/16 08:44:57;;;;;;;;;;;;;;;-13.86;63.33;99925.23;1694147;83;21129;-71
2021/01/16 08:47:25;;;;;;;;;;;;;;;-13.80;63.13;99918.75;1695460;84;20166;-69
2021/01/16 08:49:55;;;;;;;;;;;;;;;-13.72;63.18;99917.41;1695227;84;22249;-67
2021/01/16 08:52:30;;;;;;;;;;;;;;;-13.62;63.13;99906.95;1652917;84;20554;-65
2021/01/16 08:54:59;;;;;;;;;;;;;;;-13.52;63.26;99914.84;1721297;83;20156;-66
2021/01/16 08:57:32;;;;;;;;;;;;;;;-13.42;63.32;99912.28;1760363;81;20513;-66
2021/01/16 09:00:16;;;;;;;;;;;;;;;-13.31;63.24;99907.68;1760125;81;20137;-67
2021/01/16 09:03:05;;;;;;;;;;;;;;;-13.20;63.01;99906.42;1767382;80;22025;-65
2021/01/16 09:05:33;;;;;;;;;;;;;;;-13.10;62.76;99905.05;1757897;81;20539;-64
2021/01/16 09:08:03;;;;;;;;;;;;;;;-13.06;62.56;99901.45;1756883;81;20497;-65
2021/01/16 09:10:34;;;;;;;;;;;;;;;-13.03;62.30;99899.06;1731619;83;20554;-66
2021/01/16 09:13:02;;;;;;;;;;;;;;;-13.02;62.07;99900.77;1735490;81;21102;-68
2021/01/16 09:15:42;;;;;;;;;;;;;;;-13.02;62.05;99893.25;1765927;79;21003;-68
2021/01/16 09:18:13;;;;;;;;;;;;;;;-13.06;61.84;99886.81;1764508;80;20157;-67
2021/01/16 09:20:54;;;;;;;;;;;;;;;-13.09;61.92;99887.96;1752676;80;20141;-70
2021/01/16 09:23:23;;;;;;;;;;;;;;;-13.14;61.99;99879.87;1761184;81;20157;-66
2021/01/16 09:26:06;;;;;;;;;;;;;;;-13.18;62.03;99870.98;1761078;81;20184;-66
2021/01/16 09:28:49;;;;;;;;;;;;;;;-13.20;62.09;99875.11;1761391;81;21040;-71
2021/01/16 09:31:23;;;;;;;;;;;;;;;-13.23;62.34;99878.76;1761477;79;20478;-72
2021/01/16 09:33:53;;;;;;;;;;;;;;;-13.23;62.17;99872.50;1766285;79;20564;-69
2021/01/16 09:36:41;;;;;;;;;;;;;;;-13.26;62.11;99868.62;1752595;80;20154;-65
2021/01/16 09:39:19;;;;;;;;;;;;;;;-13.27;62.25;99869.42;1746976;82;20142;-70
2021/01/16 09:41:49;;;;;;;;;;;;;;;-13.28;62.33;99868.97;1752351;80;21946;-68
2021/01/16 09:44:37;;;;;;;;;;;;;;;-13.26;62.41;99873.23;1759087;81;20179;-66
2021/01/16 09:47:07;;;;;;;;;;;;;;;-13.28;62.32;99874.83;1762978;80;20179;-68
2021/01/16 09:49:44;;;;;;;;;;;;;;;-13.29;62.35;99883.14;1765865;80;20541;-70
2021/01/16 09:52:12;;;;;;;;;;;;;;;-13.26;62.55;99882.00;1772821;80;20147;-68
2021/01/16 09:54:40;;;;;;;;;;;;;;;-13.25;62.40;99881.61;1752365;80;21197;-66
2021/01/16 09:57:08;;;;;;;;;;;;;;;-13.26;62.46;99883.26;1781442;80;20734;-67
2021/01/16 09:59:37;;;;;;;;;;;;;;;-13.28;62.32;99871.47;1782813;80;20526;-68
2021/01/16 10:02:32;;;;;;;;;;;;;;;-13.27;62.32;99871.53;1774164;80;20540;-71
2021/01/16 10:05:00;;;;;;;;;;;;;;;-13.28;62.03;99871.47;1797723;79;20477;-71
2021/01/16 10:07:32;;;;;;;;;;;;;;;-13.31;62.18;99871.36;1793612;80;21379;-71
2021/01/16 10:10:03;;;;;;;;;;;;;;;-13.33;62.44;99876.31;1791804;80;20547;-67
2021/01/16 10:12:38;;;;;;;;;;;;;;;-13.35;62.22;99879.56;1791081;80;20190;-67
2021/01/16 10:15:15;;;;;;;;;;;;;;;-13.37;62.22;99874.50;1797207;80;20250;-67
2021/01/16 10:17:46;;;;;;;;;;;;;;;-13.40;62.14;99871.87;1770433;80;20257;-67
2021/01/16 10:20:16;;;;;;;;;;;;;;;-13.42;62.23;99878.87;1789180;79;21477;-69
2021/01/16 10:22:52;;;;;;;;;;;;;;;-13.45;62.70;99884.63;1800448;79;20130;-72
2021/01/16 10:25:30;;;;;;;;;;;;;;;-13.52;62.28;99877.28;1800486;79;20119;-66
2021/01/16 10:27:58;;;;;;;;;;;;;;;-13.56;62.08;99879.61;1796195;80;20481;-67
2021/01/16 10:30:33;;;;;;;;;;;;;;;-13.58;62.50;99889.57;1797467;80;20552;-71
2021/01/16 10:32:59;;;;;;;;;;;;;;;-13.60;62.44;99891.20;1794186;80;22724;-68
2021/01/16 10:35:29;;;;;;;;;;;;;;;-13.59;62.58;99887.86;1794469;80;20194;-69
2021/01/16 10:38:00;;;;;;;;;;;;;;;-13.58;62.47;99888.72;1785130;79;20218;-68
2021/01/16 10:40:30;;;;;;;;;;;;;;;-13.60;62.45;99884.08;1783222;80;20213;-68
2021/01/16 10:42:59;;;;;;;;;;;;;;;-13.63;62.36;99891.08;1792184;80;20118;-68
2021/01/16 10:45:30;;;;;;;;;;;;;;;-13.62;62.35;99891.53;1790861;80;21151;-70
2021/01/16 10:48:13;;;;;;;;;;;;;;;-13.61;62.08;99891.98;1762544;80;20558;-68
2021/01/16 10:50:48;;;;;;;;;;;;;;;-13.57;62.24;99895.44;1891517;76;20322;-68
2021/01/16 10:53:16;;;;;;;;;;;;;;;-13.57;62.13;99897.54;1858778;77;20209;-68
2021/01/16 10:55:51;;;;;;;;;;;;;;;-13.46;62.11;99895.44;1844627;75;21130;-71
2021/01/16 10:58:25;;;;;;;;;;;;;;;-13.40;62.11;99896.06;1837434;77;20441;-66
2021/01/16 11:00:58;;;;;;;;;;;;;;;-13.35;62.03;99892.08;1843875;78;20457;-69
2021/01/16 11:03:28;;;;;;;;;;;;;;;-13.35;61.95;99894.19;1849182;76;20182;-66
2021/01/16 11:05:58;;;;;;;;;;;;;;;-13.32;61.97;99895.95;1857307;77;20189;-66
2021/01/16 11:08:27;;;;;;;;;;;;;;;-13.29;61.92;99903.18;1865933;76;22153;-65
2021/01/16 11:10:56;;;;;;;;;;;;;;;-13.29;61.38;99913.20;1862980;77;20130;-65
2021/01/16 11:13:30;;;;;;;;;;;;;;;-13.36;61.34;99905.00;1855415;77;20558;-66
2021/01/16 11:16:19;;;;;;;;;;;;;;;-13.36;62.33;99907.51;1853458;77;20154;-67
2021/01/16 11:18:44;;;;;;;;;;;;;;;-13.37;61.90;99905.80;1853351;77;20312;-66
2021/01/16 11:21:31;;;;;;;;;;;;;;;-13.34;61.74;99901.30;1863258;77;21108;-67
2021/01/16 11:24:36;;;;;;;;;;;;;;;-13.32;61.60;99899.71;1863441;77;20526;-65
2021/01/16 11:27:10;;;;;;;;;;;;;;;-13.36;61.49;99908.77;1863684;77;20412;-66
2021/01/16 11:29:41;;;;;;;;;;;;;;;-13.40;61.27;99906.09;1862470;77;20134;-68
2021/01/16 11:32:13;;;;;;;;;;;;;;;-13.41;61.54;99906.48;1865365;77;20368;-65
2021/01/16 11:35:07;;;;;;;;;;;;;;;-13.41;61.55;99906.88;1864899;77;22204;-65
2021/01/16 11:37:51;;;;;;;;;;;;;;;-13.43;61.23;99908.08;1864879;77;20553;-66
2021/01/16 11:40:23;;;;;;;;;;;;;;;-13.43;60.95;99907.22;1857470;77;20150;-68
2021/01/16 11:42:57;;;;;;;;;;;;;;;-13.48;61.16;99904.55;1856255;75;20136;-65
2021/01/16 11:45:25;;;;;;;;;;;;;;;-13.51;61.08;99906.53;1846701;76;20283;-66
2021/01/16 11:47:57;;;;;;;;;;;;;;;-13.52;63.07;99907.33;1859720;77;22181;-68
2021/01/16 11:50:27;;;;;;;;;;;;;;;-13.42;65.33;99919.80;1852519;77;20496;-67
2021/01/16 11:52:56;;;;;;;;;;;;;;;-13.25;67.25;99918.78;1819635;77;20430;-67
2021/01/16 11:55:24;;;;;;;;;;;;;;;-13.05;66.88;99918.20;1818437;79;20181;-64
2021/01/16 11:57:55;;;;;;;;;;;;;;;-12.91;67.65;99928.31;1819301;79;20132;-65
2021/01/16 12:00:23;;;;;;;;;;;;;;;-12.69;67.88;99931.16;1821711;77;22069;-66
2021/01/16 12:02:52;;;;;;;;;;;;;;;-12.52;65.85;99935.11;1848465;77;20412;-66
2021/01/16 12:05:21;;;;;;;;;;;;;;;-12.52;63.75;99931.75;1851906;77;20562;-65
2021/01/16 12:07:50;;;;;;;;;;;;;;;-12.60;62.27;99927.72;1852074;77;20460;-67
2021/01/16 12:10:26;;;;;;;;;;;;;;;-12.74;61.45;99934.30;1851155;77;20197;-64
2021/01/16 12:12:55;;;;;;;;;;;;;;;-12.88;60.99;99925.07;1848339;77;22137;-66
2021/01/16 12:15:25;;;;;;;;;;;;;;;-13.00;60.60;99933.40;1818026;79;20209;-65
2021/01/16 12:17:54;;;;;;;;;;;;;;;-13.12;60.66;99937.56;1818784;79;20529;-65
2021/01/16 12:20:25;;;;;;;;;;;;;;;-13.21;60.60;99941.89;1818532;79;20271;-63
2021/01/16 12:22:58;;;;;;;;;;;;;;;-13.29;60.45;99940.75;1823430;77;20480;-67
2021/01/16 12:25:33;;;;;;;;;;;;;;;-13.37;60.54;99937.11;1837580;77;21409;-66
2021/01/16 12:28:05;;;;;;;;;;;;;;;-13.42;60.74;99934.83;1836402;77;20504;-67
2021/01/16 12:30:37;;;;;;;;;;;;;;;-13.47;60.75;99935.45;1835782;77;20127;-68
2021/01/16 12:33:06;;;;;;;;;;;;;;;-13.52;60.95;99934.88;1836334;76;20176;-67
2021/01/16 12:35:33;;;;;;;;;;;;;;;-13.57;60.55;99935.09;1836340;77;20120;-71
2021/01/16 12:38:01;;;;;;;;;;;;;;;-13.61;60.71;99932.05;1835386;77;22044;-67
2021/01/16 12:40:30;;;;;;;;;;;;;;;-13.65;60.71;99936.48;1838743;77;20185;-67
2021/01/16 12:43:02;;;;;;;;;;;;;;;-13.71;60.73;99935.38;1839546;77;20130;-70
2021/01/16 12:45:31;;;;;;;;;;;;;;;-13.75;60.77;99935.66;1838845;77;20440;-68
2021/01/16 12:47:59;;;;;;;;;;;;;;;-13.78;60.64;99944.30;1836958;77;20146;-66
2021/01/16 12:50:27;;;;;;;;;;;;;;;-13.80;60.84;99947.53;1844048;77;21296;-67
2021/01/16 12:52:55;;;;;;;;;;;;;;;-13.83;60.54;99955.77;1845849;77;20186;-68
2021/01/16 12:55:24;;;;;;;;;;;;;;;-13.88;60.66;99955.98;1846486;77;20461;-68
2021/01/16 12:57:53;;;;;;;;;;;;;;;-13.91;60.67;99957.97;1850771;77;20484;-69